createdAt,value
2018-11-14T00:00:20.499Z,9.60
2018-11-14T00:02:48.780Z,9.60
2018-11-14T00:05:17.050Z,9.60
2018-11-14T00:07:45.272Z,9.50
2018-11-14T00:10:13.560Z,9.50
2018-11-14T00:12:42.343Z,9.50
2018-11-14T00:15:12.712Z,9.50
2018-11-14T00:17:41.745Z,9.50
2018-11-14T00:20:10.821Z,9.50
2018-11-14T00:22:39.718Z,9.40
2018-11-14T00:25:08.274Z,9.40
2018-11-14T00:27:36.713Z,9.40
2018-11-14T00:30:06.579Z,9.40
2018-11-14T00:32:34.793Z,9.40
2018-11-14T00:35:03.046Z,9.30
2018-11-14T00:37:31.299Z,9.30
2018-11-14T00:39:59.548Z,9.20
2018-11-14T00:42:27.777Z,9.20
2018-11-14T00:44:56.002Z,9.20
2018-11-14T00:47:24.214Z,9.20
2018-11-14T00:49:52.474Z,9.20
2018-11-14T00:52:20.752Z,9.10
2018-11-14T00:54:49.028Z,9.10
2018-11-14T00:57:17.238Z,9.10
2018-11-14T00:59:45.421Z,9.10
2018-11-14T01:02:13.670Z,9.10
2018-11-14T01:04:41.880Z,9.10
2018-11-14T01:07:10.106Z,9.10
2018-11-14T01:09:38.748Z,9.20
2018-11-14T01:12:06.956Z,9.20
2018-11-14T01:14:35.187Z,9.10
2018-11-14T01:17:03.933Z,9.10
2018-11-14T01:19:32.205Z,9.10
2018-11-14T01:22:00.430Z,9.10
2018-11-14T01:24:28.672Z,9.10
2018-11-14T01:26:56.930Z,9.10
2018-11-14T01:29:25.174Z,9.10
2018-11-14T01:31:53.413Z,9.10
2018-11-14T01:34:21.832Z,9.20
2018-11-14T01:36:50.081Z,9.10
2018-11-14T01:39:18.350Z,9.10
2018-11-14T01:41:46.625Z,9.10
2018-11-14T01:44:14.877Z,9.10
2018-11-14T01:46:43.065Z,9.10
2018-11-14T01:49:11.314Z,9.10
2018-11-14T01:51:39.547Z,9.10
2018-11-14T01:54:07.756Z,9.20
2018-11-14T01:56:35.989Z,9.10
2018-11-14T02:01:31.384Z,9.10
2018-11-14T02:03:59.618Z,9.10
2018-11-14T02:06:27.807Z,9.10
2018-11-14T02:08:56.019Z,9.00
2018-11-14T02:11:24.296Z,9.00
2018-11-14T02:13:52.525Z,9.10
2018-11-14T02:16:20.761Z,9.10
2018-11-14T02:18:49.013Z,9.00
2018-11-14T02:21:17.218Z,9.00
2018-11-14T02:23:45.426Z,9.00
2018-11-14T02:26:13.630Z,9.00
2018-11-14T02:28:41.839Z,9.00
2018-11-14T02:31:10.243Z,9.00
2018-11-14T02:33:38.463Z,9.00
2018-11-14T02:36:06.658Z,8.90
2018-11-14T02:38:34.922Z,8.80
2018-11-14T02:41:03.214Z,8.80
2018-11-14T02:43:31.488Z,8.80
2018-11-14T02:45:59.795Z,8.80
2018-11-14T02:48:28.055Z,8.80
2018-11-14T02:51:07.563Z,8.70
2018-11-14T02:53:35.786Z,8.70
2018-11-14T02:56:08.057Z,8.70
2018-11-14T02:58:36.274Z,8.70
2018-11-14T03:01:04.760Z,8.50
2018-11-14T03:03:33.039Z,8.50
2018-11-14T03:06:01.296Z,8.50
2018-11-14T03:08:29.577Z,8.60
2018-11-14T03:10:57.845Z,8.60
2018-11-14T03:13:26.021Z,8.60
2018-11-14T03:15:54.262Z,8.50
2018-11-14T03:18:22.575Z,8.50
2018-11-14T03:20:50.792Z,8.50
2018-11-14T03:23:19.058Z,8.50
2018-11-14T03:25:47.341Z,8.60
2018-11-14T03:28:15.550Z,8.50
2018-11-14T03:30:43.789Z,8.50
2018-11-14T03:33:12.022Z,8.50
2018-11-14T03:35:45.743Z,8.60
2018-11-14T03:38:13.951Z,8.50
2018-11-14T03:40:42.201Z,8.50
2018-11-14T03:43:10.417Z,8.50
2018-11-14T03:45:38.733Z,8.50
2018-11-14T03:48:06.949Z,8.50
2018-11-14T03:50:35.158Z,8.50
2018-11-14T03:53:03.402Z,8.50
2018-11-14T03:55:31.630Z,8.50
2018-11-14T03:57:59.919Z,8.40
2018-11-14T04:00:28.677Z,8.40
2018-11-14T04:02:56.980Z,8.40
2018-11-14T04:05:25.214Z,8.40
2018-11-14T04:07:53.459Z,8.40
2018-11-14T04:10:21.679Z,8.40
2018-11-14T04:12:49.919Z,8.30
2018-11-14T04:15:18.168Z,8.30
2018-11-14T04:17:46.468Z,8.40
2018-11-14T04:20:15.990Z,8.30
2018-11-14T04:22:44.554Z,8.40
2018-11-14T04:25:18.648Z,8.30
2018-11-14T04:27:47.494Z,8.40
2018-11-14T04:30:18.791Z,8.30
2018-11-14T04:32:47.029Z,8.30
2018-11-14T04:35:16.156Z,8.40
2018-11-14T04:37:44.409Z,8.40
2018-11-14T04:40:14.861Z,8.40
2018-11-14T04:42:43.037Z,8.30
2018-11-14T04:45:13.834Z,8.30
2018-11-14T04:47:42.231Z,8.30
2018-11-14T04:50:13.288Z,8.30
2018-11-14T04:52:41.768Z,8.30
2018-11-14T04:55:11.897Z,8.20
2018-11-14T04:57:40.532Z,8.20
2018-11-14T05:00:10.021Z,8.20
2018-11-14T05:02:38.431Z,8.20
2018-11-14T05:05:08.373Z,8.20
2018-11-14T05:07:36.622Z,8.10
2018-11-14T05:10:06.087Z,8.10
2018-11-14T05:12:34.305Z,8.20
2018-11-14T05:15:02.609Z,8.10
2018-11-14T05:17:30.841Z,8.10
2018-11-14T05:19:59.052Z,8.10
2018-11-14T05:22:27.331Z,8.00
2018-11-14T05:24:55.594Z,8.00
2018-11-14T05:27:23.912Z,8.00
2018-11-14T05:29:52.165Z,8.00
2018-11-14T05:32:20.467Z,8.10
2018-11-14T05:34:48.797Z,8.10
2018-11-14T05:37:17.160Z,8.00
2018-11-14T05:39:45.509Z,8.00
2018-11-14T05:42:13.590Z,8.00
2018-11-14T05:44:41.863Z,8.00
2018-11-14T05:47:10.153Z,8.00
2018-11-14T05:49:38.456Z,8.00
2018-11-14T05:52:06.909Z,7.90
2018-11-14T05:54:35.153Z,7.90
2018-11-14T05:57:03.384Z,7.80
2018-11-14T05:59:31.686Z,7.80
2018-11-14T06:02:00.084Z,7.80
2018-11-14T06:04:28.322Z,7.70
2018-11-14T06:06:56.643Z,7.80
2018-11-14T06:09:24.846Z,7.70
2018-11-14T06:11:53.123Z,7.70
2018-11-14T06:14:21.401Z,7.70
2018-11-14T06:16:49.680Z,7.70
2018-11-14T06:19:17.936Z,7.80
2018-11-14T06:21:46.393Z,7.80
2018-11-14T06:24:14.654Z,7.80
2018-11-14T06:26:43.002Z,7.80
2018-11-14T06:29:11.247Z,7.70
2018-11-14T06:31:39.435Z,7.70
2018-11-14T06:34:07.658Z,7.80
2018-11-14T06:36:35.958Z,7.70
2018-11-14T06:39:06.457Z,7.70
2018-11-14T06:41:34.711Z,7.70
2018-11-14T06:44:02.889Z,7.70
2018-11-14T06:46:31.170Z,7.70
2018-11-14T06:48:59.371Z,7.70
2018-11-14T06:51:27.602Z,7.70
2018-11-14T06:53:55.781Z,7.70
2018-11-14T06:56:24.030Z,7.70
2018-11-14T06:58:52.361Z,7.70
2018-11-14T07:01:20.496Z,7.70
2018-11-14T07:03:48.759Z,7.70
2018-11-14T07:06:17.065Z,7.70
2018-11-14T07:08:45.193Z,7.70
2018-11-14T07:11:13.498Z,7.80
2018-11-14T07:13:41.660Z,7.80
2018-11-14T07:16:09.876Z,7.80
2018-11-14T07:18:38.104Z,7.80
2018-11-14T07:21:06.585Z,7.90
2018-11-14T07:23:34.851Z,7.80
2018-11-14T07:26:03.060Z,7.80
2018-11-14T07:28:31.301Z,7.80
2018-11-14T07:30:59.520Z,7.80
2018-11-14T07:33:27.773Z,7.80
2018-11-14T07:35:55.977Z,7.90
2018-11-14T07:38:31.366Z,8.00
2018-11-14T07:40:59.985Z,8.00
2018-11-14T07:43:28.230Z,8.10
2018-11-14T07:45:56.629Z,8.20
2018-11-14T07:48:24.893Z,8.30
2018-11-14T07:50:53.136Z,8.40
2018-11-14T07:53:21.466Z,8.40
2018-11-14T07:55:49.708Z,8.40
2018-11-14T07:58:18.065Z,8.50
2018-11-14T08:00:46.266Z,8.50
2018-11-14T08:03:14.448Z,8.60
2018-11-14T08:05:42.658Z,8.70
2018-11-14T08:08:10.913Z,8.80
2018-11-14T08:10:39.138Z,8.90
2018-11-14T08:13:07.388Z,9.00
2018-11-14T08:15:35.603Z,9.20
2018-11-14T08:18:04.013Z,9.40
2018-11-14T08:20:32.250Z,9.60
2018-11-14T08:23:00.422Z,9.70
2018-11-14T08:25:28.860Z,10.00
2018-11-14T08:27:57.090Z,10.10
2018-11-14T08:30:25.306Z,10.30
2018-11-14T08:32:53.472Z,10.30
2018-11-14T08:35:21.875Z,10.40
2018-11-14T08:37:50.032Z,10.40
2018-11-14T08:40:18.236Z,10.50
2018-11-14T08:42:46.459Z,10.60
2018-11-14T08:45:14.655Z,10.70
2018-11-14T08:47:42.864Z,11.00
2018-11-14T08:50:13.733Z,11.20
2018-11-14T08:52:42.450Z,11.40
2018-11-14T08:55:11.637Z,11.50
2018-11-14T08:57:40.800Z,11.60
2018-11-14T09:00:11.096Z,11.80
2018-11-14T09:02:39.332Z,11.90
2018-11-14T09:05:08.041Z,12.10
2018-11-14T09:07:36.480Z,12.20
2018-11-14T09:10:06.075Z,12.70
2018-11-14T09:12:34.384Z,12.60
2018-11-14T09:15:02.583Z,12.10
2018-11-14T09:17:30.808Z,12.60
2018-11-14T09:19:59.017Z,15.80
2018-11-14T09:22:27.280Z,18.80
2018-11-14T09:24:55.630Z,19.60
2018-11-14T09:27:23.773Z,20.40
2018-11-14T09:29:58.435Z,22.50
2018-11-14T09:32:26.645Z,23.40
2018-11-14T09:34:54.854Z,23.70
2018-11-14T09:37:23.079Z,23.40
2018-11-14T09:39:51.274Z,25.70
2018-11-14T09:42:19.469Z,26.10
2018-11-14T09:47:09.865Z,28.30
2018-11-14T09:49:38.057Z,28.90
2018-11-14T09:52:06.284Z,26.30
2018-11-14T09:54:34.597Z,25.90
2018-11-14T09:57:02.937Z,26.20
2018-11-14T09:59:31.117Z,27.80
2018-11-14T10:01:59.409Z,26.20
2018-11-14T10:04:27.690Z,26.00
2018-11-14T10:06:55.961Z,25.90
2018-11-14T10:09:24.333Z,27.40
2018-11-14T10:11:52.598Z,29.50
2018-11-14T10:14:20.882Z,29.90
2018-11-14T10:16:49.100Z,27.90
2018-11-14T10:19:17.353Z,26.90
2018-11-14T10:21:45.588Z,27.30
2018-11-14T10:24:13.910Z,27.10
2018-11-14T10:26:42.166Z,25.50
2018-11-14T10:29:10.481Z,24.70
2018-11-14T10:31:38.771Z,23.60
2018-11-14T10:34:06.945Z,21.90
2018-11-14T10:36:35.172Z,21.60
2018-11-14T10:39:03.736Z,21.20
2018-11-14T10:41:31.939Z,20.80
2018-11-14T10:44:00.195Z,20.60
2018-11-14T10:46:28.538Z,20.50
2018-11-14T10:48:56.778Z,20.30
2018-11-14T10:51:25.030Z,19.30
2018-11-14T10:53:53.314Z,18.60
2018-11-14T10:56:21.528Z,18.60
2018-11-14T10:58:50.067Z,18.60
2018-11-14T11:01:23.693Z,18.60
2018-11-14T11:03:57.267Z,18.60
2018-11-14T11:06:35.683Z,18.20
2018-11-14T11:09:13.208Z,17.90
2018-11-14T11:11:47.061Z,17.70
2018-11-14T11:14:20.629Z,18.00
2018-11-14T11:16:54.165Z,18.40
2018-11-14T11:19:24.612Z,19.30
2018-11-14T11:21:52.835Z,20.60
2018-11-14T11:24:22.716Z,21.40
2018-11-14T11:26:50.925Z,20.30
2018-11-14T11:29:19.135Z,19.90
2018-11-14T11:31:47.414Z,19.60
2018-11-14T11:34:15.628Z,19.30
2018-11-14T11:36:43.816Z,19.10
2018-11-14T11:39:14.010Z,18.90
2018-11-14T11:41:42.728Z,18.70
2018-11-14T11:44:11.020Z,18.70
2018-11-14T11:46:40.120Z,18.70
2018-11-14T11:49:08.540Z,18.70
2018-11-14T11:51:36.756Z,18.00
2018-11-14T11:54:05.384Z,17.50
2018-11-14T11:56:33.611Z,16.90
2018-11-14T11:59:01.856Z,16.80
2018-11-14T12:01:30.077Z,17.20
2018-11-14T12:03:58.334Z,17.40
2018-11-14T12:06:26.545Z,17.60
2018-11-14T12:08:54.736Z,17.80
2018-11-14T12:11:22.990Z,18.00
2018-11-14T12:13:52.234Z,18.20
2018-11-14T12:16:20.414Z,18.00
2018-11-14T12:18:48.676Z,17.90
2018-11-14T12:21:16.963Z,18.10
2018-11-14T12:23:45.569Z,17.80
2018-11-14T12:26:13.723Z,18.00
2018-11-14T12:28:41.932Z,18.10
2018-11-14T12:31:10.373Z,18.10
2018-11-14T12:33:38.406Z,18.20
2018-11-14T12:36:06.818Z,18.20
2018-11-14T12:38:35.044Z,17.40
2018-11-14T12:41:03.308Z,17.30
2018-11-14T12:43:31.520Z,17.40
2018-11-14T12:45:59.739Z,17.40
2018-11-14T12:48:27.961Z,17.50
2018-11-14T12:50:56.280Z,17.60
2018-11-14T12:53:24.505Z,17.40
2018-11-14T12:55:52.741Z,17.20
2018-11-14T12:58:20.978Z,16.80
2018-11-14T13:00:49.220Z,16.80
2018-11-14T13:03:17.518Z,17.10
2018-11-14T13:05:45.762Z,16.80
2018-11-14T13:08:14.010Z,17.10
2018-11-14T13:10:42.297Z,16.50
2018-11-14T13:13:10.522Z,16.60
2018-11-14T13:15:38.742Z,16.60
2018-11-14T13:18:06.977Z,16.60
2018-11-14T13:20:35.204Z,16.60
2018-11-14T13:23:03.425Z,16.80
2018-11-14T13:25:31.706Z,17.00
2018-11-14T13:27:59.978Z,16.60
2018-11-14T13:30:28.252Z,16.70
2018-11-14T13:32:56.499Z,16.80
2018-11-14T13:35:25.465Z,16.50
2018-11-14T13:37:53.700Z,16.10
2018-11-14T13:40:22.004Z,15.70
2018-11-14T13:42:50.309Z,15.30
2018-11-14T13:45:18.950Z,15.50
2018-11-14T13:47:47.189Z,15.70
2018-11-14T13:50:18.438Z,15.90
2018-11-14T13:52:46.748Z,16.00
2018-11-14T13:55:16.370Z,16.00
2018-11-14T13:57:45.721Z,15.90
2018-11-14T14:00:15.054Z,15.80
2018-11-14T14:02:43.973Z,15.60
2018-11-14T14:05:14.653Z,15.50
2018-11-14T14:07:42.841Z,15.50
2018-11-14T14:10:12.285Z,15.50
2018-11-14T14:12:41.447Z,15.40
2018-11-14T14:15:12.281Z,15.30
2018-11-14T14:17:40.513Z,15.00
2018-11-14T14:20:09.610Z,14.90
2018-11-14T14:22:37.933Z,14.90
2018-11-14T14:25:07.449Z,14.70
2018-11-14T14:27:35.791Z,14.70
2018-11-14T14:30:04.073Z,14.70
2018-11-14T14:32:32.265Z,14.60
2018-11-14T14:35:00.488Z,14.40
2018-11-14T14:37:28.699Z,14.30
2018-11-14T14:39:56.933Z,14.30
2018-11-14T14:42:25.173Z,14.10
2018-11-14T14:44:53.856Z,14.10
2018-11-14T14:47:22.392Z,13.90
2018-11-14T14:49:50.713Z,13.70
2018-11-14T14:52:18.961Z,13.70
2018-11-14T14:54:47.321Z,13.60
2018-11-14T14:57:15.525Z,13.40
2018-11-14T14:59:43.760Z,13.20
2018-11-14T15:02:11.969Z,13.10
2018-11-14T15:04:40.228Z,13.00
2018-11-14T15:07:08.445Z,12.80
2018-11-14T15:09:36.769Z,12.90
2018-11-14T15:12:05.199Z,12.60
2018-11-14T15:14:33.394Z,12.30
2018-11-14T15:17:01.590Z,12.10
2018-11-14T15:19:30.074Z,12.00
2018-11-14T15:21:58.309Z,11.80
2018-11-14T15:24:26.551Z,11.60
2018-11-14T15:26:54.814Z,11.50
2018-11-14T15:29:23.005Z,11.30
2018-11-14T15:31:51.208Z,11.10
2018-11-14T15:34:19.436Z,11.10
2018-11-14T15:36:47.683Z,10.90
2018-11-14T15:39:15.880Z,10.80
2018-11-14T15:41:44.096Z,10.60
2018-11-14T15:44:12.325Z,10.60
2018-11-14T15:46:40.665Z,10.50
2018-11-14T15:49:08.880Z,10.40
2018-11-14T15:51:37.169Z,10.40
2018-11-14T15:54:05.477Z,10.50
2018-11-14T15:56:33.722Z,10.50
2018-11-14T15:59:01.934Z,10.40
2018-11-14T16:01:30.164Z,10.40
2018-11-14T16:03:58.705Z,10.30
2018-11-14T16:06:27.030Z,10.20
2018-11-14T16:08:55.231Z,10.00
2018-11-14T16:11:23.474Z,10.00
2018-11-14T16:13:57.090Z,9.80
2018-11-14T16:16:25.372Z,9.70
2018-11-14T16:18:53.573Z,9.70
2018-11-14T16:21:21.837Z,9.70
2018-11-14T16:23:50.063Z,9.40
2018-11-14T16:26:18.327Z,9.30
2018-11-14T16:28:46.505Z,9.30
2018-11-14T16:31:14.802Z,9.30
2018-11-14T16:33:43.045Z,9.10
2018-11-14T16:36:11.290Z,9.00
2018-11-14T16:38:39.511Z,8.90
2018-11-14T16:41:07.761Z,8.90
2018-11-14T16:43:36.003Z,9.00
2018-11-14T16:46:04.303Z,8.90
2018-11-14T16:48:32.540Z,8.80
2018-11-14T16:51:00.872Z,8.70
2018-11-14T16:53:29.144Z,8.70
2018-11-14T16:55:57.413Z,8.60
2018-11-14T16:58:25.793Z,8.70
2018-11-14T17:00:54.062Z,8.80
2018-11-14T17:03:22.381Z,8.70
2018-11-14T17:05:50.627Z,8.70
2018-11-14T17:08:18.952Z,8.50
2018-11-14T17:10:47.218Z,8.50
2018-11-14T17:13:15.465Z,8.40
2018-11-14T17:15:43.738Z,8.10
2018-11-14T17:18:11.993Z,8.10
2018-11-14T17:20:40.251Z,8.10
2018-11-14T17:23:08.510Z,8.00
2018-11-14T17:25:36.839Z,7.90
2018-11-14T17:28:05.332Z,7.90
2018-11-14T17:30:33.525Z,7.80
2018-11-14T17:33:01.853Z,7.70
2018-11-14T17:35:30.174Z,7.60
2018-11-14T17:37:59.045Z,7.50
2018-11-14T17:40:28.397Z,7.50
2018-11-14T17:42:56.840Z,7.50
2018-11-14T17:45:26.452Z,7.50
2018-11-14T17:47:55.147Z,7.50
2018-11-14T17:50:25.795Z,7.40
2018-11-14T17:52:54.605Z,7.20
2018-11-14T17:55:23.544Z,7.20
2018-11-14T17:57:51.765Z,7.20
2018-11-14T18:00:22.484Z,7.30
2018-11-14T18:02:50.740Z,7.40
2018-11-14T18:05:20.323Z,7.50
2018-11-14T18:07:49.099Z,7.50
2018-11-14T18:10:18.894Z,7.40
2018-11-14T18:12:48.077Z,7.30
2018-11-14T18:15:16.521Z,7.30
2018-11-14T18:17:45.086Z,7.20
2018-11-14T18:20:18.677Z,7.10
2018-11-14T18:22:47.522Z,7.20
2018-11-14T18:25:16.133Z,7.20
2018-11-14T18:27:44.635Z,7.20
2018-11-14T18:30:18.071Z,7.10
2018-11-14T18:32:46.327Z,7.10
2018-11-14T18:35:15.648Z,7.10
2018-11-14T18:37:44.468Z,7.10
2018-11-14T18:40:15.303Z,7.00
2018-11-14T18:42:43.508Z,7.10
2018-11-14T18:45:15.893Z,7.10
2018-11-14T18:47:44.600Z,7.00
2018-11-14T18:50:13.972Z,7.00
2018-11-14T18:52:42.674Z,6.90
2018-11-14T18:55:12.377Z,6.90
2018-11-14T18:57:40.960Z,6.90
2018-11-14T19:00:12.925Z,7.00
2018-11-14T19:02:41.416Z,7.00
2018-11-14T19:05:10.426Z,7.00
2018-11-14T19:07:38.717Z,7.00
2018-11-14T19:10:08.706Z,6.90
2018-11-14T19:15:10.872Z,6.60
2018-11-14T19:17:39.261Z,6.40
2018-11-14T19:20:08.913Z,6.40
2018-11-14T19:22:37.285Z,6.30
2018-11-14T19:25:06.447Z,6.30
2018-11-14T19:27:34.741Z,6.40
2018-11-14T19:30:03.216Z,6.30
2018-11-14T19:32:32.343Z,6.30
2018-11-14T19:35:00.613Z,6.30
2018-11-14T19:37:28.989Z,6.30
2018-11-14T19:39:57.348Z,6.20
2018-11-14T19:42:25.687Z,6.20
2018-11-14T19:44:54.218Z,6.10
2018-11-14T19:47:22.604Z,6.00
2018-11-14T19:49:51.698Z,6.00
2018-11-14T19:52:20.492Z,6.10
2018-11-14T19:54:48.782Z,6.10
2018-11-14T19:57:17.033Z,6.20
2018-11-14T19:59:45.297Z,6.10
2018-11-14T20:02:13.608Z,6.20
2018-11-14T20:04:41.823Z,6.10
2018-11-14T20:09:38.293Z,6.20
2018-11-14T20:12:06.677Z,6.20
2018-11-14T20:14:35.063Z,6.20
2018-11-14T20:17:03.834Z,6.10
2018-11-14T20:19:32.556Z,5.90
2018-11-14T20:22:01.018Z,5.80
2018-11-14T20:24:29.277Z,5.70
2018-11-14T20:26:57.719Z,5.60
2018-11-14T20:29:25.991Z,5.60
2018-11-14T20:31:54.256Z,5.50
2018-11-14T20:34:22.516Z,5.60
2018-11-14T20:36:50.741Z,5.60
2018-11-14T20:39:19.064Z,5.70
2018-11-14T20:41:47.347Z,5.80
2018-11-14T20:44:15.593Z,5.80
2018-11-14T20:46:43.841Z,5.80
2018-11-14T20:49:12.211Z,5.80
2018-11-14T20:51:40.362Z,5.80
2018-11-14T20:54:08.587Z,5.80
2018-11-14T20:56:36.894Z,5.70
2018-11-14T20:59:05.126Z,5.60
2018-11-14T21:01:33.405Z,5.60
2018-11-14T21:04:01.635Z,5.50
2018-11-14T21:06:29.870Z,5.50
2018-11-14T21:08:58.112Z,5.50
2018-11-14T21:11:26.341Z,5.50
2018-11-14T21:13:54.595Z,5.50
2018-11-14T21:16:22.896Z,5.50
2018-11-14T21:18:51.168Z,5.50
2018-11-14T21:21:19.430Z,5.60
2018-11-14T21:23:47.729Z,5.60
2018-11-14T21:26:16.314Z,5.60
2018-11-14T21:28:44.539Z,5.50
2018-11-14T21:31:12.764Z,5.30
2018-11-14T21:33:41.021Z,5.30
2018-11-14T21:36:09.200Z,5.20
2018-11-14T21:38:37.483Z,5.10
2018-11-14T21:41:05.822Z,5.00
2018-11-14T21:43:34.111Z,5.10
2018-11-14T21:46:02.287Z,5.00
2018-11-14T21:48:30.552Z,4.80
2018-11-14T21:50:58.796Z,4.60
2018-11-14T21:53:27.021Z,4.70
2018-11-14T21:55:55.281Z,4.60
2018-11-14T21:58:23.540Z,4.70
2018-11-14T22:00:51.859Z,4.70
2018-11-14T22:03:20.120Z,4.80
2018-11-14T22:05:48.351Z,4.80
2018-11-14T22:08:16.676Z,4.80
2018-11-14T22:10:44.933Z,4.80
2018-11-14T22:13:13.185Z,4.70
2018-11-14T22:15:41.447Z,4.60
2018-11-14T22:18:09.749Z,4.60
2018-11-14T22:20:37.960Z,4.70
2018-11-14T22:23:06.223Z,4.70
2018-11-14T22:25:34.421Z,4.60
2018-11-14T22:28:02.736Z,4.60
2018-11-14T22:30:32.089Z,4.50
2018-11-14T22:33:00.329Z,4.50
2018-11-14T22:35:29.745Z,4.40
2018-11-14T22:37:57.985Z,4.30
2018-11-14T22:40:27.481Z,4.20
2018-11-14T22:42:55.737Z,4.10
2018-11-14T22:45:27.213Z,4.10
2018-11-14T22:47:55.444Z,4.10
2018-11-14T22:50:24.417Z,4.00
2018-11-14T22:52:53.184Z,4.10
2018-11-14T22:55:22.734Z,4.10
2018-11-14T22:57:51.514Z,4.10
2018-11-14T23:00:27.092Z,4.00
2018-11-14T23:02:56.566Z,4.00
2018-11-14T23:05:24.836Z,3.90
2018-11-14T23:07:54.109Z,3.80
2018-11-14T23:10:23.146Z,3.70
2018-11-14T23:12:51.532Z,3.60
2018-11-14T23:15:20.353Z,3.50
2018-11-14T23:17:48.797Z,3.60
2018-11-14T23:20:17.383Z,3.60
2018-11-14T23:22:46.253Z,3.70
2018-11-14T23:25:15.053Z,3.70
2018-11-14T23:27:44.466Z,3.70
2018-11-14T23:30:13.769Z,3.60
2018-11-14T23:32:43.391Z,3.60
2018-11-14T23:35:16.923Z,3.50
2018-11-14T23:37:47.063Z,3.50
2018-11-14T23:40:15.305Z,3.50
2018-11-14T23:42:43.521Z,3.50
2018-11-14T23:45:13.262Z,3.40
2018-11-14T23:47:42.304Z,3.30
2018-11-14T23:50:15.591Z,3.40
2018-11-14T23:52:44.988Z,3.30
2018-11-14T23:55:13.568Z,3.30
2018-11-14T23:57:41.788Z,3.30
